Time;durP1;ratioP1;P1;durP2;ratioP2;P2;SDS_P1;SDS_P2;PMS_P1;PMS_P2;Temp;Humidity;BMP_temperature;BMP_pressure;BME280_temperature;BME280_humidity;BME280_pressure;Samples;Min_cycle;Max_cycle;Signal;HPM_P1;HPM_P2
2023/03/08 07:05:14;;;;;;;6.40;1.95;;;-1.40;99.90;;;;;;6239094;22;1314114;-87
2023/03/08 07:08:09;;;;;;;84.50;3.25;;;-1.30;99.90;;;;;;6244364;22;20024;-86
2023/03/08 07:10:57;;;;;;;9.35;2.17;;;-1.70;99.90;;;;;;6271304;22;20047;-88
2023/03/08 07:14:19;;;;;;;6.40;2.83;;;-1.40;99.90;;;;;;6271553;22;20026;-87
2023/03/08 07:17:08;;;;;;;6.40;3.05;;;-0.80;99.90;;;;;;6245504;22;20065;-90
2023/03/08 07:19:38;;;;;;;5.75;3.55;;;-0.70;99.90;;;;;;6239215;22;20012;-83
2023/03/08 07:22:07;;;;;;;6.45;3.83;;;-1.30;99.90;;;;;;6267106;22;20023;-82
2023/03/08 07:24:47;;;;;;;9.75;4.80;;;-1.20;99.90;;;;;;6242672;22;20011;-82
2023/03/08 07:27:23;;;;;;;12.60;4.40;;;-1.30;99.90;;;;;;6267209;22;20098;-81
2023/03/08 07:29:49;;;;;;;7.85;4.63;;;-1.10;99.90;;;;;;6241329;22;20493;-82
2023/03/08 07:32:15;;;;;;;9.23;4.47;;;-0.80;99.90;;;;;;6238280;22;20117;-83
2023/03/08 07:34:56;;;;;;;7.43;3.72;;;-0.70;99.90;;;;;;6269820;22;20015;-82
2023/03/08 07:37:51;;;;;;;6.60;3.88;;;-1.10;99.90;;;;;;6243166;22;20032;-82
2023/03/08 07:43:34;;;;;;;9.18;4.43;;;-1.50;99.90;;;;;;6145960;23;20021;-82
2023/03/08 07:46:01;;;;;;;10.77;4.80;;;-0.50;99.90;;;;;;6149470;23;20139;-79
2023/03/08 07:53:58;;;;;;;;;;;;;;;;;;;;;
2023/03/08 07:56:23;;;;;;;9.05;5.07;;;-0.50;99.90;;;;;;6054041;23;20018;-82
2023/03/08 07:58:49;;;;;;;7.97;4.30;;;-0.20;99.90;;;;;;6037090;23;20079;-83
2023/03/08 08:01:15;;;;;;;8.13;4.30;;;0.10;99.90;;;;;;6038161;23;20339;-80
2023/03/08 08:03:41;;;;;;;8.38;4.85;;;0.90;99.90;;;;;;6040247;23;20162;-85
2023/03/08 08:06:13;;;;;;;10.23;4.72;;;-0.30;99.90;;;;;;6040917;23;20312;-82
2023/03/08 08:09:11;;;;;;;6.93;5.00;;;0.70;99.90;;;;;;6063927;23;20478;-81
2023/03/08 08:15:29;;;;;;;;;;;;;;;;;;;;;
2023/03/08 08:18:03;;;;;;;9.32;5.60;;;0.20;99.90;;;;;;6027957;23;20312;-83
2023/03/08 08:20:43;;;;;;;10.27;6.40;;;0.50;99.90;;;;;;6013130;23;20006;-82
2023/03/08 08:24:05;;;;;;;9.15;6.15;;;0.20;99.90;;;;;;6085168;23;20082;-83
2023/03/08 08:27:44;;;;;;;;;;;;;;;;;;;;;
2023/03/08 08:30:57;;;;;;;11.00;7.00;;;0.50;99.90;;;;;;6001003;23;20024;-85
2023/03/08 08:33:26;;;;;;;10.65;6.82;;;0.40;99.90;;;;;;5968143;23;20830;-83
2023/03/08 08:36:12;;;;;;;11.73;7.20;;;0.90;99.90;;;;;;5980202;23;20019;-85
2023/03/08 08:39:23;;;;;;;13.23;7.13;;;1.00;99.90;;;;;;5979196;23;20020;-81
2023/03/08 08:41:58;;;;;;;12.23;6.80;;;0.70;99.90;;;;;;6002711;23;20418;-83
2023/03/08 08:44:51;;;;;;;12.18;7.03;;;0.70;99.90;;;;;;5983371;23;20023;-82
2023/03/08 08:47:51;;;;;;;10.80;6.53;;;1.20;99.90;;;;;;6008652;23;20019;-82
2023/03/08 08:54:38;;;;;;;10.75;7.03;;;1.30;99.90;;;;;;6056459;23;20030;-81
2023/03/08 09:00:32;;;;;;;9.63;6.85;;;1.50;99.90;;;;;;6034260;23;20023;-82
2023/03/08 09:07:30;;;;;;;9.23;6.10;;;1.70;99.90;;;;;;6092861;23;20025;-81
2023/03/08 09:10:05;;;;;;;9.88;6.13;;;1.50;99.90;;;;;;6084610;23;20041;-81
2023/03/08 09:13:10;;;;;;;12.73;5.88;;;1.40;99.90;;;;;;6061276;23;20124;-81
2023/03/08 09:16:19;;;;;;;11.40;5.82;;;1.30;99.90;;;;;;6034880;23;20042;-82
2023/03/08 09:19:35;;;;;;;10.63;5.25;;;1.70;99.90;;;;;;5957761;24;20155;-81
2023/03/08 09:22:52;;;;;;;11.80;6.10;;;2.00;99.90;;;;;;5954284;24;20108;-81
2023/03/08 09:25:48;;;;;;;11.70;5.13;;;2.30;99.90;;;;;;5977531;24;20293;-80
2023/03/08 09:28:37;;;;;;;9.48;5.60;;;1.80;99.90;;;;;;5977493;23;20016;-81
2023/03/08 09:31:58;;;;;;;;;;;;;;;;;;;;;
2023/03/08 09:34:37;;;;;;;11.30;5.45;;;2.40;99.90;;;;;;5946491;24;20039;-82
2023/03/08 09:37:34;;;;;;;8.07;5.28;;;2.10;99.90;;;;;;6004361;23;20093;-81
2023/03/08 09:40:08;;;;;;;10.75;5.32;;;2.50;99.90;;;;;;6014365;23;20049;-82
2023/03/08 09:42:47;;;;;;;7.35;4.70;;;2.00;99.90;;;;;;6065058;23;20011;-82
2023/03/08 09:45:45;;;;;;;;;;;;;;;;;;;;;
2023/03/08 09:49:08;;;;;;;6.35;4.85;;;2.70;99.90;;;;;;6090202;23;20010;-81
2023/03/08 09:51:57;;;;;;;10.50;5.00;;;2.80;99.90;;;;;;6088270;23;20020;-81
2023/03/08 09:54:45;;;;;;;10.38;4.38;;;2.80;99.90;;;;;;6125839;23;20013;-82
2023/03/08 09:57:52;;;;;;;13.63;4.38;;;2.60;99.90;;;;;;6243418;22;20022;-84
2023/03/08 10:00:30;;;;;;;6.93;3.40;;;2.80;99.90;;;;;;6130818;23;20008;-87
2023/03/08 10:03:23;;;;;;;5.95;3.75;;;2.90;99.90;;;;;;6128742;23;20019;-84
2023/03/08 10:06:02;;;;;;;7.75;4.32;;;3.20;99.90;;;;;;6152866;23;20032;-86
2023/03/08 10:08:49;;;;;;;6.45;4.15;;;3.20;99.90;;;;;;6122666;23;20104;-83
2023/03/08 10:11:41;;;;;;;6.53;3.35;;;3.10;99.90;;;;;;6127853;23;20013;-85
2023/03/08 10:14:51;;;;;;;5.80;3.42;;;3.80;99.90;;;;;;6128270;23;20021;-83
2023/03/08 10:17:23;;;;;;;10.90;3.00;;;3.50;99.90;;;;;;6087983;23;20018;-86
2023/03/08 10:20:18;;;;;;;6.65;3.38;;;3.30;99.90;;;;;;6087184;23;20368;-84
2023/03/08 10:23:08;;;;;;;9.80;3.80;;;3.60;99.90;;;;;;6065881;23;20011;-84
2023/03/08 10:26:00;;;;;;;5.15;3.40;;;3.30;99.90;;;;;;6063087;23;20024;-82
2023/03/08 10:28:26;;;;;;;5.60;3.58;;;3.20;99.90;;;;;;6086842;23;20081;-80
2023/03/08 10:30:57;;;;;;;7.13;3.50;;;3.80;99.90;;;;;;6063309;23;20042;-71
2023/03/08 10:46:11;;;;;;;5.55;1.45;;;10.50;99.90;;;;;;5138863;27;20542;-81
2023/03/08 10:48:37;;;;;;;0.00;0.00;;;11.30;99.90;;;;;;5082496;27;20060;-79
2023/03/08 10:51:05;;;;;;;0.00;0.00;;;11.80;99.90;;;;;;5127177;27;20370;-77
2023/03/08 10:53:32;;;;;;;0.00;0.00;;;12.30;99.90;;;;;;5124859;27;20035;-78
